Time;durP1;ratioP1;P1;durP2;ratioP2;P2;SDS_P1;SDS_P2;PMS_P1;PMS_P2;Temp;Humidity;BMP_temperature;BMP_pressure;BME280_temperature;BME280_humidity;BME280_pressure;Samples;Min_cycle;Max_cycle;Signal;HPM_P1;HPM_P2
2021/06/21 00:01:14;;;;;;;0.93;0.90;;;18.60;99.90;;;;;;5091193;28;20969;-69
2021/06/21 00:03:42;;;;;;;0.20;0.20;;;18.60;99.90;;;;;;5093097;28;20135;-71
2021/06/21 00:06:09;;;;;;;0.20;0.20;;;18.60;99.90;;;;;;5092800;27;20047;-70
2021/06/21 00:08:36;;;;;;;0.00;0.00;;;18.60;99.90;;;;;;5092807;28;20450;-69
2021/06/21 00:11:04;;;;;;;0.10;0.10;;;18.50;99.90;;;;;;5092137;27;20295;-70
2021/06/21 00:13:31;;;;;;;0.35;0.28;;;18.60;99.90;;;;;;5093363;28;20093;-70
2021/06/21 00:15:58;;;;;;;0.47;0.47;;;18.50;99.90;;;;;;5092716;28;20090;-70
2021/06/21 00:18:25;;;;;;;21.85;1.38;;;18.50;99.90;;;;;;5093146;28;20071;-71
2021/06/21 00:20:53;;;;;;;1.25;0.47;;;18.50;99.90;;;;;;5091938;28;20051;-67
2021/06/21 00:23:21;;;;;;;2.95;0.98;;;18.50;99.90;;;;;;5093103;28;20077;-70
2021/06/21 00:25:49;;;;;;;1.85;1.48;;;18.50;99.90;;;;;;5090207;28;20051;-69
2021/06/21 00:28:16;;;;;;;3.00;1.55;;;18.50;99.90;;;;;;5090685;28;20039;-68
2021/06/21 00:30:43;;;;;;;0.52;0.52;;;18.40;99.90;;;;;;5090605;28;20863;-70
2021/06/21 00:33:10;;;;;;;0.43;0.38;;;18.40;99.90;;;;;;5091770;28;20047;-70
2021/06/21 00:35:37;;;;;;;0.32;0.32;;;18.40;99.90;;;;;;5091868;28;20043;-71
2021/06/21 00:38:07;;;;;;;0.52;0.50;;;18.40;99.90;;;;;;5093511;28;20096;-70
2021/06/21 00:40:35;;;;;;;0.15;0.15;;;18.30;99.90;;;;;;5091877;28;20116;-71
2021/06/21 00:43:03;;;;;;;0.25;0.25;;;18.30;99.90;;;;;;5092119;28;20079;-70
2021/06/21 00:45:30;;;;;;;0.32;0.32;;;18.30;99.90;;;;;;5092068;28;20047;-69
2021/06/21 00:47:57;;;;;;;2.08;0.40;;;18.30;99.90;;;;;;5091423;28;20048;-70
2021/06/21 00:50:26;;;;;;;1.85;0.55;;;18.20;99.90;;;;;;5092157;28;20280;-70
2021/06/21 00:52:55;;;;;;;1.13;1.02;;;18.30;99.90;;;;;;5091352;28;20503;-68
2021/06/21 00:55:25;;;;;;;7.95;1.73;;;18.20;99.90;;;;;;5087925;28;20101;-71
2021/06/21 00:57:52;;;;;;;0.00;0.00;;;18.30;99.90;;;;;;5085840;28;20503;-69
2021/06/21 01:00:22;;;;;;;1.52;1.42;;;18.30;99.90;;;;;;5084601;28;20051;-71
2021/06/21 01:02:50;;;;;;;0.13;0.10;;;18.30;99.90;;;;;;5085925;28;20047;-66
2021/06/21 01:05:19;;;;;;;0.05;0.05;;;18.40;99.90;;;;;;5086429;28;20051;-66
2021/06/21 01:07:47;;;;;;;1.08;0.85;;;18.40;99.90;;;;;;5085483;28;20521;-65
2021/06/21 01:10:16;;;;;;;0.00;0.00;;;18.50;99.90;;;;;;5085866;28;20499;-65
2021/06/21 01:12:58;;;;;;;2.38;0.93;;;18.50;99.90;;;;;;5086744;28;20558;-65
2021/06/21 01:15:30;;;;;;;0.00;0.00;;;18.40;99.90;;;;;;5085727;28;20051;-66
2021/06/21 01:18:03;;;;;;;1.05;0.85;;;18.40;99.90;;;;;;5085616;28;20048;-65
2021/06/21 01:21:02;;;;;;;1.13;0.98;;;18.40;99.90;;;;;;5085114;28;20048;-66
2021/06/21 01:24:06;;;;;;;0.30;0.30;;;18.30;99.90;;;;;;5089703;27;20485;-67
2021/06/21 01:26:41;;;;;;;0.10;0.10;;;18.30;99.90;;;;;;5090378;28;20104;-67
2021/06/21 01:29:37;;;;;;;3.53;1.20;;;18.40;99.90;;;;;;5090673;27;20070;-68
2021/06/21 01:32:10;;;;;;;0.40;0.30;;;18.40;99.90;;;;;;5088898;27;20101;-67
2021/06/21 01:34:44;;;;;;;7.03;0.57;;;18.30;99.90;;;;;;5089850;28;20050;-69
2021/06/21 01:37:14;;;;;;;0.65;0.65;;;18.40;99.90;;;;;;5089420;28;20101;-71
2021/06/21 01:39:41;;;;;;;1.90;1.77;;;18.30;99.90;;;;;;5089881;28;20143;-68
2021/06/21 01:42:12;;;;;;;0.05;0.05;;;18.40;99.90;;;;;;5088979;27;20083;-70
2021/06/21 01:44:43;;;;;;;0.28;0.15;;;18.30;99.90;;;;;;5090079;28;20094;-68
2021/06/21 01:47:11;;;;;;;1.63;1.52;;;18.30;99.90;;;;;;5089571;28;20904;-69
2021/06/21 01:49:44;;;;;;;1.88;1.58;;;18.40;99.90;;;;;;5089780;27;20039;-67
2021/06/21 01:52:14;;;;;;;1.55;0.70;;;18.30;99.90;;;;;;5088869;27;20510;-67
2021/06/21 01:54:46;;;;;;;0.55;0.55;;;18.30;99.90;;;;;;5087482;27;20105;-70
2021/06/21 01:57:14;;;;;;;0.10;0.10;;;18.30;99.90;;;;;;5089406;28;20375;-69
2021/06/21 01:59:44;;;;;;;0.00;0.00;;;18.40;99.90;;;;;;5087835;28;20059;-67
2021/06/21 02:02:11;;;;;;;1.30;1.20;;;18.40;99.90;;;;;;5089164;28;20082;-68
2021/06/21 02:04:40;;;;;;;0.22;0.22;;;18.40;99.90;;;;;;5088922;27;20503;-69
2021/06/21 02:07:10;;;;;;;0.95;0.82;;;18.40;99.90;;;;;;5088341;28;20488;-68
2021/06/21 02:09:37;;;;;;;0.52;0.52;;;18.40;99.90;;;;;;5087079;28;20059;-66
2021/06/21 02:12:08;;;;;;;7.47;1.15;;;18.30;99.90;;;;;;5086443;27;20120;-66
2021/06/21 02:14:36;;;;;;;0.00;0.00;;;18.30;99.90;;;;;;5087745;27;20079;-66
2021/06/21 02:17:04;;;;;;;0.52;0.38;;;18.30;99.90;;;;;;5088425;27;20050;-66
2021/06/21 02:19:33;;;;;;;0.30;0.30;;;18.30;99.90;;;;;;5087305;28;20100;-66
2021/06/21 02:22:02;;;;;;;0.20;0.20;;;18.40;99.90;;;;;;5087409;27;20116;-66
2021/06/21 02:24:30;;;;;;;1.40;1.15;;;18.40;99.90;;;;;;5086895;28;20044;-66
2021/06/21 02:26:58;;;;;;;0.10;0.10;;;18.40;99.90;;;;;;5087665;28;20130;-66
2021/06/21 02:29:27;;;;;;;2.15;1.10;;;18.50;99.90;;;;;;5088326;28;20044;-66
2021/06/21 02:31:54;;;;;;;0.75;0.75;;;18.50;99.90;;;;;;5086580;27;20101;-68
2021/06/21 02:34:21;;;;;;;0.60;0.43;;;18.50;99.90;;;;;;5086912;27;20083;-67
2021/06/21 02:36:49;;;;;;;2.90;1.15;;;18.50;99.90;;;;;;5086831;27;20494;-68
2021/06/21 02:39:18;;;;;;;0.63;0.63;;;18.60;99.90;;;;;;5087133;28;20047;-69
2021/06/21 02:41:46;;;;;;;0.20;0.20;;;18.60;99.90;;;;;;5086997;27;20047;-68
2021/06/21 02:44:13;;;;;;;0.00;0.00;;;18.70;99.90;;;;;;5087187;27;20138;-66
2021/06/21 02:46:40;;;;;;;0.63;0.63;;;18.70;99.90;;;;;;5087361;28;20455;-67
2021/06/21 02:49:07;;;;;;;0.70;0.60;;;18.80;99.90;;;;;;5086385;27;20984;-66
2021/06/21 02:51:39;;;;;;;0.60;0.47;;;18.80;99.90;;;;;;5086117;28;20067;-69
2021/06/21 02:54:10;;;;;;;2.53;1.40;;;18.80;99.90;;;;;;5086428;27;20051;-66
2021/06/21 02:56:42;;;;;;;1.30;1.13;;;18.80;99.90;;;;;;5087200;27;20059;-66
2021/06/21 02:59:11;;;;;;;2.88;1.92;;;18.90;99.90;;;;;;5086752;28;20563;-66
2021/06/21 03:01:44;;;;;;;0.10;0.10;;;18.80;99.90;;;;;;5086771;28;20096;-66
2021/06/21 03:04:13;;;;;;;0.35;0.35;;;18.70;99.90;;;;;;5086371;28;20048;-66
2021/06/21 03:06:42;;;;;;;0.10;0.10;;;18.80;99.90;;;;;;5085800;28;20044;-65
2021/06/21 03:09:09;;;;;;;17.33;2.65;;;18.90;99.90;;;;;;5087169;27;20043;-66
2021/06/21 03:11:39;;;;;;;2.13;1.13;;;18.80;99.90;;;;;;5087529;27;20052;-64
2021/06/21 03:14:06;;;;;;;7.03;2.60;;;18.80;99.90;;;;;;5087268;28;20043;-64
2021/06/21 03:16:34;;;;;;;1.10;0.75;;;18.80;99.90;;;;;;5085173;28;20101;-66
2021/06/21 03:19:02;;;;;;;0.00;0.00;;;18.80;99.90;;;;;;5085849;27;20078;-66
2021/06/21 03:21:29;;;;;;;0.00;0.00;;;18.80;99.90;;;;;;5085734;28;20051;-67
2021/06/21 03:23:57;;;;;;;4.90;3.00;;;18.80;99.90;;;;;;5086160;28;20142;-68
2021/06/21 03:26:25;;;;;;;0.47;0.30;;;18.90;99.90;;;;;;5087428;27;20043;-69
2021/06/21 03:28:54;;;;;;;0.40;0.40;;;18.90;99.90;;;;;;5086623;27;20561;-68
2021/06/21 03:31:23;;;;;;;0.95;0.77;;;18.90;99.90;;;;;;5086376;28;20831;-69
2021/06/21 03:33:50;;;;;;;0.43;0.38;;;18.90;99.90;;;;;;5086763;28;20582;-68
2021/06/21 03:36:17;;;;;;;1.05;0.95;;;18.80;99.90;;;;;;5086452;27;20401;-66
2021/06/21 03:38:46;;;;;;;1.30;0.93;;;18.90;99.90;;;;;;5087059;27;20511;-66
2021/06/21 03:41:13;;;;;;;1.15;0.68;;;19.00;99.90;;;;;;5086267;28;20083;-68
2021/06/21 03:43:40;;;;;;;0.32;0.28;;;19.00;99.90;;;;;;5085665;27;20082;-69
2021/06/21 03:46:09;;;;;;;3.03;0.68;;;19.00;99.90;;;;;;5086296;28;20052;-71
2021/06/21 03:48:37;;;;;;;1.83;1.58;;;19.00;99.90;;;;;;5086358;28;20500;-69
2021/06/21 03:51:05;;;;;;;0.55;0.32;;;19.00;99.90;;;;;;5085534;28;20051;-70
2021/06/21 03:53:32;;;;;;;1.83;1.58;;;19.00;99.90;;;;;;5086896;27;20043;-66
2021/06/21 03:55:59;;;;;;;1.42;1.15;;;19.00;99.90;;;;;;5086418;28;20048;-66
2021/06/21 03:58:26;;;;;;;0.00;0.00;;;19.00;99.90;;;;;;5087121;28;20515;-66
2021/06/21 04:00:53;;;;;;;0.30;0.30;;;18.90;99.90;;;;;;5086100;28;20587;-64
2021/06/21 04:03:23;;;;;;;3.75;1.30;;;18.90;99.90;;;;;;5086262;27;20089;-67
2021/06/21 04:05:51;;;;;;;0.88;0.88;;;19.00;99.90;;;;;;5087019;27;20062;-64
2021/06/21 04:08:18;;;;;;;31.08;3.72;;;19.00;99.90;;;;;;5086349;28;20049;-64
2021/06/21 04:10:46;;;;;;;0.22;0.22;;;19.00;99.90;;;;;;5086168;28;20047;-64
2021/06/21 04:13:15;;;;;;;3.05;1.45;;;19.00;99.90;;;;;;5085830;28;20095;-64
2021/06/21 04:15:43;;;;;;;0.70;0.65;;;19.00;99.90;;;;;;5086293;28;20055;-64
2021/06/21 04:18:12;;;;;;;1.65;1.48;;;18.90;99.90;;;;;;5085760;27;20117;-64
2021/06/21 04:20:41;;;;;;;3.60;2.67;;;19.00;99.90;;;;;;5085518;28;20121;-64
2021/06/21 04:23:09;;;;;;;4.10;1.27;;;19.00;99.90;;;;;;5086872;28;20044;-66
2021/06/21 04:25:36;;;;;;;0.73;0.73;;;19.00;99.90;;;;;;5085535;28;20055;-66
2021/06/21 04:28:05;;;;;;;0.95;0.88;;;19.00;99.90;;;;;;5086198;28;20100;-66
2021/06/21 04:30:32;;;;;;;0.32;0.32;;;19.00;99.90;;;;;;5086185;28;20129;-66
2021/06/21 04:32:59;;;;;;;0.38;0.38;;;18.90;99.90;;;;;;5085368;28;20454;-66
2021/06/21 04:35:27;;;;;;;1.40;1.30;;;18.90;99.90;;;;;;5086517;28;20515;-68
2021/06/21 04:37:57;;;;;;;3.30;1.15;;;18.90;99.90;;;;;;5084232;28;20086;-71
2021/06/21 04:40:26;;;;;;;4.68;1.02;;;18.90;99.90;;;;;;5083988;28;20969;-68
2021/06/21 04:42:53;;;;;;;4.07;1.95;;;18.90;99.90;;;;;;5085593;28;20097;-65
2021/06/21 04:45:20;;;;;;;0.00;0.00;;;18.90;99.90;;;;;;5085698;28;20100;-66
2021/06/21 04:47:47;;;;;;;4.07;2.47;;;18.90;99.90;;;;;;5085469;28;20515;-66
2021/06/21 04:50:17;;;;;;;1.45;1.13;;;18.90;99.90;;;;;;5083988;28;20082;-66
2021/06/21 04:52:45;;;;;;;1.65;1.30;;;18.90;99.90;;;;;;5086280;28;20059;-66
2021/06/21 04:55:17;;;;;;;11.07;1.77;;;19.00;99.90;;;;;;5086165;28;20209;-69
2021/06/21 04:57:44;;;;;;;0.03;0.03;;;18.90;99.90;;;;;;5088956;28;20407;-69
2021/06/21 05:00:14;;;;;;;4.97;3.15;;;18.90;99.90;;;;;;5088996;27;20408;-69
2021/06/21 05:02:41;;;;;;;0.43;0.43;;;19.00;99.90;;;;;;5088689;28;20132;-69
2021/06/21 05:05:10;;;;;;;3.47;1.80;;;19.10;99.90;;;;;;5089584;28;20101;-68
2021/06/21 05:07:39;;;;;;;0.68;0.52;;;19.20;99.90;;;;;;5089478;28;20051;-71
2021/06/21 05:10:08;;;;;;;1.08;0.93;;;19.20;99.90;;;;;;5089192;27;20135;-70
2021/06/21 05:12:36;;;;;;;0.65;0.65;;;19.30;99.90;;;;;;5090353;27;20083;-66
2021/06/21 05:15:04;;;;;;;7.85;1.83;;;19.30;99.90;;;;;;5087769;27;20507;-68
2021/06/21 05:17:31;;;;;;;2.67;0.93;;;19.30;99.90;;;;;;5090249;27;20463;-66
2021/06/21 05:19:58;;;;;;;1.48;1.10;;;19.40;99.90;;;;;;5091797;27;20101;-65
2021/06/21 05:22:25;;;;;;;3.08;1.65;;;19.50;99.90;;;;;;5092055;28;20040;-65
2021/06/21 05:24:54;;;;;;;3.25;1.38;;;19.60;99.90;;;;;;5091765;28;20083;-65
2021/06/21 05:27:21;;;;;;;0.57;0.35;;;19.60;99.90;;;;;;5091815;28;20139;-65
2021/06/21 05:29:49;;;;;;;0.43;0.43;;;19.60;99.90;;;;;;5090929;27;20113;-65
2021/06/21 05:32:16;;;;;;;1.00;0.93;;;19.60;99.90;;;;;;5091235;28;20048;-65
2021/06/21 05:34:44;;;;;;;2.45;1.70;;;19.70;99.90;;;;;;5091516;27;20051;-65
2021/06/21 05:37:11;;;;;;;0.10;0.10;;;19.70;99.90;;;;;;5091425;28;20090;-65
2021/06/21 05:39:38;;;;;;;4.05;1.50;;;19.70;99.90;;;;;;5090494;28;20130;-65
2021/06/21 05:42:06;;;;;;;13.95;2.20;;;19.80;99.90;;;;;;5089615;28;20062;-65
2021/06/21 05:44:33;;;;;;;4.40;2.38;;;19.90;99.90;;;;;;5091033;28;20079;-66
2021/06/21 05:47:01;;;;;;;1.33;1.08;;;20.00;99.90;;;;;;5090409;28;21195;-66
2021/06/21 05:49:29;;;;;;;0.82;0.80;;;20.00;99.90;;;;;;5091027;28;20043;-67
2021/06/21 05:51:56;;;;;;;1.77;1.48;;;20.10;99.90;;;;;;5090164;27;20876;-68
2021/06/21 05:54:23;;;;;;;0.32;0.28;;;20.20;99.90;;;;;;5089831;28;20101;-65
2021/06/21 05:56:50;;;;;;;0.38;0.35;;;20.20;99.90;;;;;;5090627;27;20079;-66
2021/06/21 05:59:18;;;;;;;1.35;0.90;;;20.20;99.90;;;;;;5091362;27;20043;-67
2021/06/21 06:01:45;;;;;;;0.88;0.75;;;20.30;99.90;;;;;;5089348;28;20047;-67
2021/06/21 06:04:13;;;;;;;0.93;0.65;;;20.20;99.90;;;;;;5091549;27;20045;-67
2021/06/21 06:06:40;;;;;;;0.25;0.25;;;20.20;99.90;;;;;;5091747;28;20112;-67
2021/06/21 06:09:07;;;;;;;14.00;2.15;;;20.20;99.90;;;;;;5090330;28;20814;-66
2021/06/21 06:11:34;;;;;;;1.92;1.38;;;20.20;99.90;;;;;;5089373;27;21051;-66
2021/06/21 06:14:01;;;;;;;0.20;0.20;;;20.10;99.90;;;;;;5090874;27;20051;-67
2021/06/21 06:16:28;;;;;;;0.52;0.52;;;20.20;99.90;;;;;;5090439;27;20491;-69
2021/06/21 06:18:55;;;;;;;1.13;1.02;;;20.20;99.90;;;;;;5090553;28;20048;-71
2021/06/21 06:21:25;;;;;;;17.60;3.88;;;20.20;99.90;;;;;;5089155;28;20967;-68
2021/06/21 06:23:52;;;;;;;1.55;0.80;;;20.20;99.90;;;;;;5090672;28;20341;-68
2021/06/21 06:26:19;;;;;;;1.13;0.73;;;20.20;99.90;;;;;;5090482;28;20105;-67
2021/06/21 06:28:46;;;;;;;1.55;1.25;;;20.30;99.90;;;;;;5090641;27;20047;-69
2021/06/21 06:31:13;;;;;;;0.17;0.17;;;20.30;99.90;;;;;;5089387;27;20047;-67
2021/06/21 06:33:40;;;;;;;0.43;0.40;;;20.30;99.90;;;;;;5088987;28;20405;-67
2021/06/21 06:36:07;;;;;;;0.60;0.60;;;20.30;99.90;;;;;;5089619;27;20075;-67
2021/06/21 06:38:36;;;;;;;0.50;0.28;;;20.40;99.90;;;;;;5089961;27;20047;-67
2021/06/21 06:41:05;;;;;;;0.47;0.43;;;20.50;99.90;;;;;;5088867;28;20097;-67
2021/06/21 06:43:32;;;;;;;0.00;0.00;;;20.60;99.90;;;;;;5089712;28;20079;-72
2021/06/21 06:45:59;;;;;;;3.83;1.17;;;20.70;99.90;;;;;;5089344;27;20098;-69
2021/06/21 06:48:26;;;;;;;0.17;0.17;;;20.80;99.90;;;;;;5089335;27;20142;-69
2021/06/21 06:50:53;;;;;;;0.38;0.20;;;20.80;99.90;;;;;;5088347;28;20057;-71
2021/06/21 06:53:27;;;;;;;3.90;0.95;;;20.80;99.90;;;;;;5089740;27;20108;-68
2021/06/21 06:58:40;;;;;;;0.08;0.08;;;20.60;99.90;;;;;;5090175;27;20066;-68
2021/06/21 07:01:07;;;;;;;0.00;0.00;;;20.50;99.90;;;;;;5088066;28;20641;-68
2021/06/21 07:03:34;;;;;;;0.32;0.32;;;20.60;99.90;;;;;;5089033;28;20434;-68
2021/06/21 07:06:01;;;;;;;0.30;0.30;;;20.70;99.90;;;;;;5089375;27;20052;-68
2021/06/21 07:08:28;;;;;;;0.00;0.00;;;20.90;99.90;;;;;;5088542;28;20564;-69
2021/06/21 07:10:56;;;;;;;0.43;0.43;;;20.80;99.90;;;;;;5089064;27;20148;-69
2021/06/21 07:13:23;;;;;;;1.10;1.00;;;20.90;99.90;;;;;;5090924;28;20092;-68
2021/06/21 07:15:50;;;;;;;1.27;0.90;;;20.90;99.90;;;;;;5089541;27;20134;-68
2021/06/21 07:18:17;;;;;;;0.55;0.55;;;20.90;99.90;;;;;;5088898;27;20126;-68
2021/06/21 07:20:44;;;;;;;0.00;0.00;;;21.00;99.90;;;;;;5087233;28;20466;-68
2021/06/21 07:23:11;;;;;;;0.13;0.13;;;21.10;99.90;;;;;;5088851;27;20096;-69
2021/06/21 07:25:39;;;;;;;3.63;2.08;;;21.10;99.90;;;;;;5088075;28;20446;-68
2021/06/21 07:28:07;;;;;;;0.30;0.22;;;21.20;99.90;;;;;;5088502;27;20059;-68
2021/06/21 07:30:35;;;;;;;1.17;0.50;;;21.20;99.90;;;;;;5087177;28;20043;-69
2021/06/21 07:33:02;;;;;;;0.00;0.00;;;21.30;99.90;;;;;;5088742;28;20115;-68
2021/06/21 07:35:29;;;;;;;1.23;1.13;;;21.30;99.90;;;;;;5092289;27;20092;-68
2021/06/21 07:37:56;;;;;;;0.43;0.40;;;21.30;99.90;;;;;;5101046;28;20058;-69
2021/06/21 07:40:23;;;;;;;1.45;0.95;;;21.30;99.90;;;;;;5096467;28;20047;-69
2021/06/21 07:42:50;;;;;;;0.00;0.00;;;21.40;99.90;;;;;;5096580;28;20583;-68
2021/06/21 07:45:19;;;;;;;0.28;0.20;;;21.40;99.90;;;;;;5095702;27;20071;-69
2021/06/21 07:47:46;;;;;;;0.00;0.00;;;21.40;99.90;;;;;;5096231;27;20155;-69
2021/06/21 07:50:13;;;;;;;2.95;1.10;;;21.50;99.90;;;;;;5094533;28;20051;-70
2021/06/21 07:52:40;;;;;;;0.77;0.77;;;21.70;99.90;;;;;;5095725;28;20408;-69
2021/06/21 07:55:08;;;;;;;5.88;2.42;;;21.80;99.90;;;;;;5096343;28;20043;-72
2021/06/21 07:57:35;;;;;;;0.00;0.00;;;21.90;99.90;;;;;;5096747;27;20048;-69
2021/06/21 08:00:02;;;;;;;0.00;0.00;;;22.00;99.90;;;;;;5097016;28;20074;-70
2021/06/21 08:02:31;;;;;;;3.17;1.73;;;22.00;99.90;;;;;;5097018;28;20096;-68
2021/06/21 08:04:58;;;;;;;0.25;0.25;;;22.00;99.90;;;;;;5095620;27;20533;-68
2021/06/21 08:07:25;;;;;;;3.80;0.57;;;22.10;99.90;;;;;;5097262;28;20550;-68
2021/06/21 08:09:52;;;;;;;1.27;1.13;;;22.00;99.90;;;;;;5096331;27;20142;-70
2021/06/21 08:12:20;;;;;;;6.18;1.90;;;22.10;99.90;;;;;;5096919;28;20048;-73
2021/06/21 08:14:47;;;;;;;0.30;0.30;;;22.20;99.90;;;;;;5098983;28;20059;-71
2021/06/21 08:17:14;;;;;;;0.20;0.20;;;22.40;99.90;;;;;;5098613;28;20254;-70
2021/06/21 08:19:44;;;;;;;0.32;0.20;;;22.50;99.90;;;;;;5098452;28;20083;-69
2021/06/21 08:22:11;;;;;;;0.00;0.00;;;22.60;99.90;;;;;;5099070;28;20055;-71
2021/06/21 08:24:41;;;;;;;2.17;0.70;;;22.70;99.90;;;;;;5098305;28;20464;-71
2021/06/21 08:27:08;;;;;;;0.00;0.00;;;22.70;99.90;;;;;;5097924;28;20055;-69
2021/06/21 08:29:35;;;;;;;4.05;1.73;;;22.70;99.90;;;;;;5098347;28;20047;-69
2021/06/21 08:32:03;;;;;;;0.65;0.30;;;22.80;99.90;;;;;;5097145;28;20083;-71
2021/06/21 08:34:30;;;;;;;1.55;0.47;;;22.80;99.90;;;;;;5097331;28;20407;-72
2021/06/21 08:36:58;;;;;;;2.25;1.30;;;22.90;99.90;;;;;;5097566;28;20052;-69
2021/06/21 08:39:25;;;;;;;0.00;0.00;;;23.20;99.90;;;;;;5095290;28;20047;-71
2021/06/21 08:41:54;;;;;;;1.35;0.57;;;23.30;99.90;;;;;;5096564;28;20159;-74
2021/06/21 08:44:21;;;;;;;0.00;0.00;;;23.30;99.90;;;;;;5096922;28;20130;-73
2021/06/21 08:46:50;;;;;;;4.18;0.98;;;23.40;99.90;;;;;;5097268;28;20043;-70
2021/06/21 08:49:19;;;;;;;0.08;0.03;;;23.50;99.90;;;;;;5095397;28;20202;-69
2021/06/21 08:51:47;;;;;;;0.08;0.08;;;23.40;99.90;;;;;;5094982;28;20113;-70
2021/06/21 08:54:15;;;;;;;2.60;0.52;;;23.50;99.90;;;;;;5096094;28;20136;-72
2021/06/21 08:56:42;;;;;;;0.43;0.43;;;23.80;99.90;;;;;;5094237;28;20184;-73
2021/06/21 08:59:09;;;;;;;0.47;0.47;;;23.70;99.90;;;;;;5097367;28;20399;-70
2021/06/21 09:01:39;;;;;;;0.10;0.10;;;24.20;99.90;;;;;;5096331;28;20048;-70
2021/06/21 09:04:09;;;;;;;2.17;0.65;;;24.80;99.90;;;;;;5096818;28;20132;-68
2021/06/21 09:06:38;;;;;;;2.42;1.23;;;25.10;99.90;;;;;;5097172;28;20087;-71
2021/06/21 09:09:06;;;;;;;0.00;0.00;;;25.50;99.90;;;;;;5097884;28;20557;-70
2021/06/21 09:11:54;;;;;;;0.00;0.00;;;25.10;99.90;;;;;;5096657;28;20051;-71
2021/06/21 09:14:32;;;;;;;0.20;0.20;;;24.70;99.90;;;;;;5097489;28;20089;-71
2021/06/21 09:17:01;;;;;;;0.00;0.00;;;24.50;99.90;;;;;;5097106;28;20051;-70
2021/06/21 09:19:28;;;;;;;0.88;0.80;;;24.50;99.90;;;;;;5095910;28;20077;-68
2021/06/21 09:21:56;;;;;;;4.03;1.75;;;25.40;99.90;;;;;;5095663;28;20116;-68
2021/06/21 09:24:24;;;;;;;0.38;0.35;;;25.60;99.90;;;;;;5096705;28;20050;-68
2021/06/21 09:26:55;;;;;;;0.17;0.17;;;26.30;99.90;;;;;;5096260;28;20048;-67
2021/06/21 09:29:34;;;;;;;0.10;0.10;;;26.50;99.90;;;;;;5096872;28;20083;-67
2021/06/21 09:32:01;;;;;;;0.47;0.35;;;26.80;99.90;;;;;;5096188;28;20044;-67
2021/06/21 09:34:28;;;;;;;0.00;0.00;;;27.20;99.90;;;;;;5097197;28;20785;-68
2021/06/21 09:37:05;;;;;;;0.00;0.00;;;27.70;99.90;;;;;;5098228;28;20048;-68
2021/06/21 09:39:33;;;;;;;5.15;1.42;;;27.60;99.90;;;;;;5096994;28;20047;-68
2021/06/21 09:42:23;;;;;;;1.17;0.43;;;27.80;99.90;;;;;;5096689;28;20055;-68
2021/06/21 09:44:52;;;;;;;10.57;2.40;;;28.00;99.90;;;;;;5094225;27;20071;-68
2021/06/21 09:47:23;;;;;;;8.02;1.85;;;27.90;99.90;;;;;;5101183;27;20576;-68
2021/06/21 09:50:15;;;;;;;7.28;2.83;;;28.80;99.90;;;;;;5100510;28;20059;-68
2021/06/21 09:52:55;;;;;;;8.38;1.98;;;28.50;99.90;;;;;;5100725;28;20120;-67
2021/06/21 09:55:30;;;;;;;10.25;2.53;;;28.50;99.90;;;;;;5101508;28;20403;-68
2021/06/21 09:58:18;;;;;;;10.43;2.20;;;28.20;99.90;;;;;;5101193;27;20051;-68
2021/06/21 10:00:47;;;;;;;9.68;2.72;;;28.60;99.90;;;;;;5100040;28;20051;-68
2021/06/21 10:03:17;;;;;;;14.48;2.13;;;28.60;99.90;;;;;;5101217;27;20652;-67
2021/06/21 10:05:46;;;;;;;9.88;2.22;;;28.30;99.90;;;;;;5100684;27;20075;-68
2021/06/21 10:08:15;;;;;;;8.65;2.15;;;29.20;99.90;;;;;;5100340;28;20443;-68
2021/06/21 10:10:44;;;;;;;8.20;1.92;;;29.60;99.90;;;;;;5099806;27;20108;-67
2021/06/21 10:13:12;;;;;;;10.32;1.77;;;29.20;99.90;;;;;;5099669;28;20044;-67
2021/06/21 10:15:41;;;;;;;15.75;2.63;;;29.50;99.90;;;;;;5100027;28;20562;-68
2021/06/21 10:18:08;;;;;;;10.57;2.28;;;29.90;99.90;;;;;;5099352;27;20048;-66
2021/06/21 10:20:36;;;;;;;12.10;2.63;;;30.10;99.90;;;;;;5099110;28;20047;-66
2021/06/21 10:23:06;;;;;;;10.07;2.20;;;31.00;99.90;;;;;;5099025;28;20055;-65
2021/06/21 10:25:34;;;;;;;7.07;2.13;;;30.60;99.90;;;;;;5099224;28;20470;-65
2021/06/21 10:28:02;;;;;;;6.40;1.98;;;30.20;99.90;;;;;;5098920;28;20058;-65
2021/06/21 10:30:30;;;;;;;11.25;2.88;;;29.60;99.90;;;;;;5099284;27;20075;-65
2021/06/21 10:33:00;;;;;;;12.55;2.20;;;30.60;99.90;;;;;;5098996;28;20135;-65
2021/06/21 10:35:31;;;;;;;6.60;1.92;;;30.00;99.90;;;;;;5100349;27;20461;-65
2021/06/21 10:38:00;;;;;;;8.35;2.13;;;29.80;99.90;;;;;;5099363;27;20124;-65
2021/06/21 10:40:29;;;;;;;7.65;2.28;;;29.60;99.90;;;;;;5098057;27;20092;-65
2021/06/21 10:42:57;;;;;;;6.20;1.67;;;30.00;99.90;;;;;;5100388;27;20496;-65
2021/06/21 10:45:26;;;;;;;6.82;1.80;;;30.30;99.90;;;;;;5099553;28;20047;-65
2021/06/21 10:48:08;;;;;;;8.85;2.20;;;29.10;99.90;;;;;;5099414;28;20525;-65
2021/06/21 10:50:49;;;;;;;12.73;2.25;;;29.80;99.90;;;;;;5099572;27;20048;-65
2021/06/21 10:53:17;;;;;;;7.57;1.40;;;30.10;99.90;;;;;;5099420;27;20465;-65
2021/06/21 10:55:53;;;;;;;10.43;1.80;;;29.90;99.90;;;;;;5099315;27;20142;-68
2021/06/21 10:58:45;;;;;;;7.47;1.98;;;30.30;99.90;;;;;;5094927;28;20096;-68
2021/06/21 11:01:17;;;;;;;6.40;1.73;;;29.30;99.90;;;;;;5092271;28;20139;-68
2021/06/21 11:03:46;;;;;;;7.72;2.58;;;29.50;99.90;;;;;;5094253;27;20076;-65
2021/06/21 11:06:36;;;;;;;6.03;1.77;;;29.60;99.90;;;;;;5093057;28;20087;-65
2021/06/21 11:09:07;;;;;;;6.38;1.77;;;29.50;99.90;;;;;;5093922;28;20155;-68
2021/06/21 11:11:46;;;;;;;7.93;2.38;;;29.40;99.90;;;;;;5092498;28;20047;-67
2021/06/21 11:14:23;;;;;;;9.10;1.88;;;30.40;99.90;;;;;;5094394;28;20159;-68
2021/06/21 11:16:51;;;;;;;7.65;1.70;;;30.20;99.90;;;;;;5093423;28;20043;-67
2021/06/21 11:19:36;;;;;;;10.32;1.88;;;31.10;99.90;;;;;;5093341;28;20121;-65
2021/06/21 11:22:06;;;;;;;5.13;1.50;;;31.50;99.90;;;;;;5094364;28;20466;-65
2021/06/21 11:24:53;;;;;;;8.18;1.88;;;31.20;99.90;;;;;;5093168;27;20040;-68
2021/06/21 11:27:21;;;;;;;7.78;2.28;;;31.50;99.90;;;;;;5091928;28;20476;-66
2021/06/21 11:29:51;;;;;;;5.55;1.60;;;32.20;99.90;;;;;;5087329;27;20472;-65
2021/06/21 11:32:19;;;;;;;7.50;2.13;;;31.60;99.90;;;;;;5084594;27;20547;-66
2021/06/21 11:34:55;;;;;;;7.20;2.47;;;31.50;99.90;;;;;;5087853;28;20054;-66
2021/06/21 11:37:29;;;;;;;;;;;31.80;99.90;;;;;;5090890;28;20474;-65
2021/06/21 11:40:28;;;;;;;4.78;1.30;;;31.00;99.90;;;;;;5090234;27;19989;-68
2021/06/21 11:43:12;;;;;;;7.68;1.60;;;31.70;99.90;;;;;;5086707;27;20051;-66
2021/06/21 11:45:58;;;;;;;4.60;1.45;;;31.70;99.90;;;;;;5090751;28;20039;-66
2021/06/21 11:48:30;;;;;;;7.82;2.30;;;30.70;99.90;;;;;;5091720;27;20050;-68
2021/06/21 11:50:59;;;;;;;5.30;2.15;;;29.50;99.90;;;;;;5090348;27;20051;-68
2021/06/21 11:53:27;;;;;;;7.07;1.73;;;30.70;99.90;;;;;;5069837;28;20294;-66
2021/06/21 11:55:55;;;;;;;6.03;1.40;;;31.30;99.90;;;;;;5084114;27;20101;-67
2021/06/21 11:58:27;;;;;;;7.28;1.60;;;30.80;99.90;;;;;;5086712;28;20089;-68
2021/06/21 12:00:54;;;;;;;9.25;2.08;;;30.90;99.90;;;;;;5082903;28;20480;-68
2021/06/21 12:03:31;;;;;;;6.65;1.40;;;29.90;99.90;;;;;;5084052;28;20496;-68
2021/06/21 12:06:00;;;;;;;10.30;1.77;;;30.60;99.90;;;;;;5086385;27;20498;-66
2021/06/21 12:08:28;;;;;;;5.93;1.42;;;31.70;99.90;;;;;;5085228;28;20058;-66
2021/06/21 12:10:55;;;;;;;5.57;1.50;;;31.90;99.90;;;;;;5085938;28;20047;-66
2021/06/21 12:13:24;;;;;;;5.07;1.52;;;31.60;99.90;;;;;;5087392;28;20062;-66
2021/06/21 12:15:51;;;;;;;9.95;2.38;;;30.90;99.90;;;;;;5086568;28;20054;-66
2021/06/21 12:18:26;;;;;;;7.82;2.38;;;30.40;99.90;;;;;;5086288;28;20079;-65
2021/06/21 12:20:53;;;;;;;9.77;1.80;;;30.20;99.90;;;;;;5084951;28;20047;-66
2021/06/21 12:23:24;;;;;;;9.15;1.98;;;29.90;99.90;;;;;;5086610;28;20087;-65
2021/06/21 12:25:51;;;;;;;6.90;1.90;;;30.00;99.90;;;;;;5080841;27;20055;-66
2021/06/21 12:28:21;;;;;;;5.28;1.33;;;30.50;99.90;;;;;;5082831;28;20039;-68
2021/06/21 12:30:50;;;;;;;7.38;1.65;;;30.40;99.90;;;;;;5085457;28;20051;-68
2021/06/21 12:33:25;;;;;;;6.53;1.73;;;31.20;99.90;;;;;;5080000;28;20047;-68
2021/06/21 12:36:13;;;;;;;6.82;1.50;;;31.20;99.90;;;;;;5081684;27;20083;-68
2021/06/21 12:38:44;;;;;;;8.65;2.28;;;30.90;99.90;;;;;;5085476;28;20048;-68
2021/06/21 12:41:17;;;;;;;6.57;1.45;;;30.50;99.90;;;;;;5086767;28;20048;-68
2021/06/21 12:43:53;;;;;;;6.35;1.75;;;30.70;99.90;;;;;;5084363;27;20044;-68
2021/06/21 12:46:22;;;;;;;6.30;1.50;;;30.70;99.90;;;;;;5087466;28;20074;-68
2021/06/21 12:48:50;;;;;;;7.90;1.95;;;31.40;99.90;;;;;;5084420;28;20120;-66
2021/06/21 12:51:18;;;;;;;7.32;1.40;;;32.40;99.90;;;;;;5080616;28;20303;-66
2021/06/21 12:53:49;;;;;;;4.85;1.63;;;33.00;99.90;;;;;;5081381;28;20051;-66
2021/06/21 12:56:24;;;;;;;4.53;1.90;;;32.40;99.90;;;;;;5086403;28;20412;-66
2021/06/21 12:58:52;;;;;;;4.28;1.50;;;31.10;99.90;;;;;;5086202;28;20071;-66
2021/06/21 13:01:27;;;;;;;3.25;1.02;;;31.50;99.90;;;;;;5079635;28;20573;-66